sensor_id;sensor_type;location;lat;lon;timestamp;pressure;altitude;pressure_sealevel;temperature;humidity
68855;BME280;69984;-43.570;172.580;2024-01-30T00:02:02;100919.78;;;25.79;55.98
68855;BME280;69984;-43.570;172.580;2024-01-30T00:04:29;100916.28;;;25.79;53.70
68855;BME280;69984;-43.570;172.580;2024-01-30T00:06:56;100916.34;;;25.96;55.38
68855;BME280;69984;-43.570;172.580;2024-01-30T00:09:23;100911.78;;;25.96;54.58
68855;BME280;69984;-43.570;172.580;2024-01-30T00:11:50;100920.84;;;26.07;53.44
68855;BME280;69984;-43.570;172.580;2024-01-30T00:14:17;100922.41;;;25.91;50.92
68855;BME280;69984;-43.570;172.580;2024-01-30T00:16:44;100931.06;;;25.42;53.02
68855;BME280;69984;-43.570;172.580;2024-01-30T00:19:12;100940.66;;;25.38;55.68
68855;BME280;69984;-43.570;172.580;2024-01-30T00:21:39;100937.31;;;25.19;55.30
68855;BME280;69984;-43.570;172.580;2024-01-30T00:24:06;100944.31;;;24.97;54.79
68855;BME280;69984;-43.570;172.580;2024-01-30T00:26:33;100934.75;;;24.89;55.20
68855;BME280;69984;-43.570;172.580;2024-01-30T00:29:00;100939.41;;;25.17;54.22
68855;BME280;69984;-43.570;172.580;2024-01-30T00:31:27;100937.03;;;25.55;55.02
68855;BME280;69984;-43.570;172.580;2024-01-30T00:33:54;100947.28;;;25.87;55.30
68855;BME280;69984;-43.570;172.580;2024-01-30T00:36:21;100944.56;;;25.98;52.04
68855;BME280;69984;-43.570;172.580;2024-01-30T00:38:48;100948.91;;;25.99;55.77
68855;BME280;69984;-43.570;172.580;2024-01-30T00:41:18;100945.63;;;26.25;53.57
68855;BME280;69984;-43.570;172.580;2024-01-30T00:43:45;100941.56;;;25.95;54.54
68855;BME280;69984;-43.570;172.580;2024-01-30T00:46:12;100947.63;;;25.90;54.92
68855;BME280;69984;-43.570;172.580;2024-01-30T00:48:39;100939.06;;;26.66;52.74
68855;BME280;69984;-43.570;172.580;2024-01-30T00:51:06;100942.59;;;25.94;53.40
68855;BME280;69984;-43.570;172.580;2024-01-30T00:53:33;100942.53;;;25.89;55.33
68855;BME280;69984;-43.570;172.580;2024-01-30T00:56:00;100933.59;;;26.45;53.85
68855;BME280;69984;-43.570;172.580;2024-01-30T00:58:27;100939.22;;;26.76;53.43
68855;BME280;69984;-43.570;172.580;2024-01-30T01:00:54;100942.19;;;25.85;55.37
68855;BME280;69984;-43.570;172.580;2024-01-30T01:03:20;100939.63;;;25.27;57.09
68855;BME280;69984;-43.570;172.580;2024-01-30T01:05:47;100943.13;;;25.51;56.00
68855;BME280;69984;-43.570;172.580;2024-01-30T01:08:14;100939.72;;;25.44;57.49
68855;BME280;69984;-43.570;172.580;2024-01-30T01:10:41;100941.22;;;26.19;56.46
68855;BME280;69984;-43.570;172.580;2024-01-30T01:13:08;100937.44;;;25.75;55.84
68855;BME280;69984;-43.570;172.580;2024-01-30T01:15:35;100929.75;;;26.24;57.02
68855;BME280;69984;-43.570;172.580;2024-01-30T01:18:03;100931.41;;;26.42;53.83
68855;BME280;69984;-43.570;172.580;2024-01-30T01:20:30;100933.59;;;26.45;55.31
68855;BME280;69984;-43.570;172.580;2024-01-30T01:22:57;100934.84;;;26.70;53.90
68855;BME280;69984;-43.570;172.580;2024-01-30T01:25:24;100941.75;;;26.66;54.91
68855;BME280;69984;-43.570;172.580;2024-01-30T01:27:51;100943.06;;;26.97;51.98
68855;BME280;69984;-43.570;172.580;2024-01-30T01:30:18;100944.88;;;27.30;52.29
68855;BME280;69984;-43.570;172.580;2024-01-30T01:32:51;100956.09;;;26.72;53.33
68855;BME280;69984;-43.570;172.580;2024-01-30T01:35:22;100950.38;;;26.07;55.24
68855;BME280;69984;-43.570;172.580;2024-01-30T01:37:51;100956.09;;;25.82;55.85
68855;BME280;69984;-43.570;172.580;2024-01-30T01:40:24;100949.94;;;26.26;53.24
68855;BME280;69984;-43.570;172.580;2024-01-30T01:42:52;100946.81;;;25.90;56.07
68855;BME280;69984;-43.570;172.580;2024-01-30T01:45:20;100960.50;;;25.88;56.25
68855;BME280;69984;-43.570;172.580;2024-01-30T01:47:53;100952.25;;;26.51;53.33
68855;BME280;69984;-43.570;172.580;2024-01-30T01:50:21;100955.34;;;26.15;56.48
68855;BME280;69984;-43.570;172.580;2024-01-30T01:52:48;100953.19;;;26.28;56.69
68855;BME280;69984;-43.570;172.580;2024-01-30T01:55:16;100946.81;;;26.63;55.88
68855;BME280;69984;-43.570;172.580;2024-01-30T01:57:44;100958.84;;;26.44;54.39
68855;BME280;69984;-43.570;172.580;2024-01-30T02:00:12;100952.91;;;26.42;55.70
68855;BME280;69984;-43.570;172.580;2024-01-30T02:02:39;100951.78;;;25.81;56.48
68855;BME280;69984;-43.570;172.580;2024-01-30T02:05:07;100948.19;;;26.49;55.67
68855;BME280;69984;-43.570;172.580;2024-01-30T02:07:34;100941.94;;;25.47;57.42
68855;BME280;69984;-43.570;172.580;2024-01-30T02:10:01;100942.81;;;26.49;56.66
68855;BME280;69984;-43.570;172.580;2024-01-30T02:12:30;100951.06;;;26.14;55.83
68855;BME280;69984;-43.570;172.580;2024-01-30T02:14:57;100945.91;;;26.74;54.33
68855;BME280;69984;-43.570;172.580;2024-01-30T02:17:24;100950.13;;;27.03;52.76
68855;BME280;69984;-43.570;172.580;2024-01-30T02:19:51;100954.69;;;27.41;53.37
68855;BME280;69984;-43.570;172.580;2024-01-30T02:22:19;100957.84;;;26.33;55.04
68855;BME280;69984;-43.570;172.580;2024-01-30T02:24:46;100963.75;;;26.80;54.39
68855;BME280;69984;-43.570;172.580;2024-01-30T02:27:13;100960.34;;;27.40;51.86
68855;BME280;69984;-43.570;172.580;2024-01-30T02:29:40;100955.47;;;26.98;54.02
68855;BME280;69984;-43.570;172.580;2024-01-30T02:32:07;100962.22;;;27.39;53.04
68855;BME280;69984;-43.570;172.580;2024-01-30T02:34:34;100966.34;;;28.12;50.17
68855;BME280;69984;-43.570;172.580;2024-01-30T02:37:01;100954.78;;;28.16;51.05
68855;BME280;69984;-43.570;172.580;2024-01-30T02:39:28;100958.75;;;28.09;50.43
68855;BME280;69984;-43.570;172.580;2024-01-30T02:41:55;100948.13;;;28.24;49.04
68855;BME280;69984;-43.570;172.580;2024-01-30T02:44:23;100944.97;;;28.64;49.13
68855;BME280;69984;-43.570;172.580;2024-01-30T02:46:50;100962.97;;;28.00;50.59
68855;BME280;69984;-43.570;172.580;2024-01-30T02:49:17;100949.19;;;28.23;49.15
68855;BME280;69984;-43.570;172.580;2024-01-30T02:51:44;100953.25;;;28.25;49.84
68855;BME280;69984;-43.570;172.580;2024-01-30T02:54:10;100955.56;;;28.44;50.73
68855;BME280;69984;-43.570;172.580;2024-01-30T02:56:37;100958.91;;;28.24;51.24
68855;BME280;69984;-43.570;172.580;2024-01-30T02:59:04;100958.13;;;28.55;47.72
68855;BME280;69984;-43.570;172.580;2024-01-30T03:01:31;100958.94;;;28.56;48.63
68855;BME280;69984;-43.570;172.580;2024-01-30T03:03:58;100966.00;;;27.60;49.95
68855;BME280;69984;-43.570;172.580;2024-01-30T03:06:25;100966.66;;;27.94;50.29
68855;BME280;69984;-43.570;172.580;2024-01-30T03:08:52;100966.59;;;28.37;48.10
68855;BME280;69984;-43.570;172.580;2024-01-30T03:11:19;100966.63;;;27.45;51.94
68855;BME280;69984;-43.570;172.580;2024-01-30T03:13:46;100969.47;;;27.39;51.55
68855;BME280;69984;-43.570;172.580;2024-01-30T03:16:13;100975.75;;;27.44;52.22
68855;BME280;69984;-43.570;172.580;2024-01-30T03:18:39;100969.47;;;27.00;53.59
68855;BME280;69984;-43.570;172.580;2024-01-30T03:21:06;100975.91;;;26.99;52.71
68855;BME280;69984;-43.570;172.580;2024-01-30T03:23:33;100982.72;;;26.40;52.58
68855;BME280;69984;-43.570;172.580;2024-01-30T03:26:00;100981.31;;;26.21;54.96
68855;BME280;69984;-43.570;172.580;2024-01-30T03:28:27;100989.94;;;26.11;54.22
68855;BME280;69984;-43.570;172.580;2024-01-30T03:30:54;100982.53;;;26.30;54.27
68855;BME280;69984;-43.570;172.580;2024-01-30T03:33:21;100978.44;;;26.56;53.63
68855;BME280;69984;-43.570;172.580;2024-01-30T03:35:48;100978.25;;;26.62;53.03
68855;BME280;69984;-43.570;172.580;2024-01-30T03:38:15;100980.28;;;26.72;57.20
68855;BME280;69984;-43.570;172.580;2024-01-30T03:40:41;100990.50;;;27.42;50.51
68855;BME280;69984;-43.570;172.580;2024-01-30T03:43:08;100985.22;;;27.90;49.15
68855;BME280;69984;-43.570;172.580;2024-01-30T03:45:35;100994.16;;;27.96;51.41
68855;BME280;69984;-43.570;172.580;2024-01-30T03:48:02;101004.34;;;28.10;48.67
68855;BME280;69984;-43.570;172.580;2024-01-30T03:50:29;100995.34;;;28.58;48.04
68855;BME280;69984;-43.570;172.580;2024-01-30T03:52:56;100995.84;;;28.82;47.57
68855;BME280;69984;-43.570;172.580;2024-01-30T03:55:23;100996.22;;;28.32;50.20
68855;BME280;69984;-43.570;172.580;2024-01-30T03:57:50;101005.94;;;28.97;48.72
68855;BME280;69984;-43.570;172.580;2024-01-30T04:00:17;101011.31;;;28.65;48.62
68855;BME280;69984;-43.570;172.580;2024-01-30T04:02:45;101004.03;;;28.92;46.91
68855;BME280;69984;-43.570;172.580;2024-01-30T04:05:12;101008.63;;;28.97;46.73
68855;BME280;69984;-43.570;172.580;2024-01-30T04:07:39;101011.94;;;29.04;46.25
68855;BME280;69984;-43.570;172.580;2024-01-30T04:10:06;101010.88;;;30.09;45.84
68855;BME280;69984;-43.570;172.580;2024-01-30T04:12:33;101009.09;;;30.75;44.27
68855;BME280;69984;-43.570;172.580;2024-01-30T04:15:00;101001.56;;;29.80;45.53
68855;BME280;69984;-43.570;172.580;2024-01-30T04:17:27;101005.38;;;29.32;46.10
68855;BME280;69984;-43.570;172.580;2024-01-30T04:19:55;101007.56;;;27.91;48.91
68855;BME280;69984;-43.570;172.580;2024-01-30T04:22:22;101005.88;;;28.06;49.74
68855;BME280;69984;-43.570;172.580;2024-01-30T04:24:49;101006.00;;;28.16;50.16
68855;BME280;69984;-43.570;172.580;2024-01-30T04:27:16;101020.44;;;28.59;49.07
68855;BME280;69984;-43.570;172.580;2024-01-30T04:29:43;101013.22;;;28.64;48.16
68855;BME280;69984;-43.570;172.580;2024-01-30T04:32:10;101009.28;;;29.51;47.03
68855;BME280;69984;-43.570;172.580;2024-01-30T04:34:37;101022.06;;;30.58;43.33
68855;BME280;69984;-43.570;172.580;2024-01-30T04:37:04;101031.19;;;30.27;42.28
68855;BME280;69984;-43.570;172.580;2024-01-30T04:39:33;101030.34;;;30.01;42.80
68855;BME280;69984;-43.570;172.580;2024-01-30T04:42:00;101024.53;;;31.05;42.10
68855;BME280;69984;-43.570;172.580;2024-01-30T04:44:27;101019.91;;;30.95;40.74
68855;BME280;69984;-43.570;172.580;2024-01-30T04:46:53;101016.41;;;30.69;41.85
68855;BME280;69984;-43.570;172.580;2024-01-30T04:49:25;101020.38;;;31.53;41.26
68855;BME280;69984;-43.570;172.580;2024-01-30T04:51:51;101029.91;;;32.04;39.20
68855;BME280;69984;-43.570;172.580;2024-01-30T04:54:18;101034.25;;;31.16;35.83
68855;BME280;69984;-43.570;172.580;2024-01-30T04:56:45;101039.94;;;30.49;36.17
68855;BME280;69984;-43.570;172.580;2024-01-30T04:59:12;101047.31;;;29.86;37.18
68855;BME280;69984;-43.570;172.580;2024-01-30T05:01:39;101054.31;;;28.45;42.14
68855;BME280;69984;-43.570;172.580;2024-01-30T05:04:09;101061.78;;;26.27;41.94
68855;BME280;69984;-43.570;172.580;2024-01-30T05:06:37;101053.41;;;26.01;44.56
68855;BME280;69984;-43.570;172.580;2024-01-30T05:09:04;101062.28;;;26.24;44.94
68855;BME280;69984;-43.570;172.580;2024-01-30T05:11:31;101061.72;;;25.99;48.39
68855;BME280;69984;-43.570;172.580;2024-01-30T05:13:58;101068.66;;;25.37;50.20
68855;BME280;69984;-43.570;172.580;2024-01-30T05:16:25;101066.78;;;25.38;50.16
68855;BME280;69984;-43.570;172.580;2024-01-30T05:18:52;101074.00;;;24.43;54.03
68855;BME280;69984;-43.570;172.580;2024-01-30T05:21:19;101064.34;;;24.71;52.48
68855;BME280;69984;-43.570;172.580;2024-01-30T05:23:46;101079.34;;;22.77;58.46
68855;BME280;69984;-43.570;172.580;2024-01-30T05:26:12;101079.22;;;22.15;64.57
68855;BME280;69984;-43.570;172.580;2024-01-30T05:28:39;101086.19;;;22.22;64.89
68855;BME280;69984;-43.570;172.580;2024-01-30T05:31:06;101091.84;;;21.95;68.93
68855;BME280;69984;-43.570;172.580;2024-01-30T05:33:34;101098.47;;;21.53;73.45
68855;BME280;69984;-43.570;172.580;2024-01-30T05:36:00;101110.72;;;22.88;67.92
68855;BME280;69984;-43.570;172.580;2024-01-30T05:38:30;101103.28;;;22.97;68.54
68855;BME280;69984;-43.570;172.580;2024-01-30T05:40:58;101112.25;;;23.59;64.83
68855;BME280;69984;-43.570;172.580;2024-01-30T05:43:25;101119.84;;;22.74;68.62
68855;BME280;69984;-43.570;172.580;2024-01-30T05:45:53;101121.31;;;22.64;69.86
68855;BME280;69984;-43.570;172.580;2024-01-30T05:48:19;101120.84;;;23.43;65.47
68855;BME280;69984;-43.570;172.580;2024-01-30T05:50:46;101124.31;;;23.86;64.77
68855;BME280;69984;-43.570;172.580;2024-01-30T05:53:13;101126.63;;;22.77;66.55
68855;BME280;69984;-43.570;172.580;2024-01-30T05:55:40;101119.84;;;23.06;67.51
68855;BME280;69984;-43.570;172.580;2024-01-30T05:58:07;101123.13;;;24.00;64.76
68855;BME280;69984;-43.570;172.580;2024-01-30T06:00:34;101125.03;;;23.32;66.23
68855;BME280;69984;-43.570;172.580;2024-01-30T06:03:01;101129.16;;;23.28;67.32
68855;BME280;69984;-43.570;172.580;2024-01-30T06:05:28;101151.56;;;22.00;70.32
68855;BME280;69984;-43.570;172.580;2024-01-30T06:07:55;101139.78;;;23.66;66.10
68855;BME280;69984;-43.570;172.580;2024-01-30T06:10:22;101158.69;;;23.46;65.35
68855;BME280;69984;-43.570;172.580;2024-01-30T06:12:49;101163.22;;;24.79;60.42
68855;BME280;69984;-43.570;172.580;2024-01-30T06:15:15;101168.47;;;26.39;53.87
68855;BME280;69984;-43.570;172.580;2024-01-30T06:17:42;101167.50;;;24.69;58.32
68855;BME280;69984;-43.570;172.580;2024-01-30T06:20:09;101171.06;;;24.08;63.73
68855;BME280;69984;-43.570;172.580;2024-01-30T06:22:36;101174.38;;;25.36;56.22
68855;BME280;69984;-43.570;172.580;2024-01-30T06:25:03;101183.00;;;24.49;57.76
68855;BME280;69984;-43.570;172.580;2024-01-30T06:27:30;101184.25;;;25.65;55.13
68855;BME280;69984;-43.570;172.580;2024-01-30T06:29:57;101190.38;;;24.17;58.66
68855;BME280;69984;-43.570;172.580;2024-01-30T06:32:24;101195.16;;;23.03;63.67
68855;BME280;69984;-43.570;172.580;2024-01-30T06:34:51;101195.47;;;22.81;67.26
68855;BME280;69984;-43.570;172.580;2024-01-30T06:37:18;101204.00;;;23.34;63.56
68855;BME280;69984;-43.570;172.580;2024-01-30T06:39:45;101214.44;;;23.99;62.69
68855;BME280;69984;-43.570;172.580;2024-01-30T06:42:13;101210.41;;;22.96;65.79
68855;BME280;69984;-43.570;172.580;2024-01-30T06:44:40;101220.72;;;20.75;77.04
68855;BME280;69984;-43.570;172.580;2024-01-30T06:47:07;101216.03;;;20.84;77.99
68855;BME280;69984;-43.570;172.580;2024-01-30T06:49:34;101229.78;;;21.68;76.06
68855;BME280;69984;-43.570;172.580;2024-01-30T06:52:01;101222.97;;;22.37;72.17
68855;BME280;69984;-43.570;172.580;2024-01-30T06:54:28;101237.56;;;21.50;74.73
68855;BME280;69984;-43.570;172.580;2024-01-30T06:56:55;101234.50;;;21.53;75.82
68855;BME280;69984;-43.570;172.580;2024-01-30T06:59:22;101238.16;;;21.38;76.54
68855;BME280;69984;-43.570;172.580;2024-01-30T07:01:49;101240.28;;;20.27;81.63
68855;BME280;69984;-43.570;172.580;2024-01-30T07:04:15;101255.66;;;18.98;92.04
68855;BME280;69984;-43.570;172.580;2024-01-30T07:06:43;101252.00;;;17.88;100.00
68855;BME280;69984;-43.570;172.580;2024-01-30T07:09:10;101262.56;;;17.96;100.00
68855;BME280;69984;-43.570;172.580;2024-01-30T07:11:37;101294.69;;;17.25;100.00
68855;BME280;69984;-43.570;172.580;2024-01-30T07:14:04;101280.22;;;17.35;100.00
68855;BME280;69984;-43.570;172.580;2024-01-30T07:16:31;101280.91;;;16.98;100.00
68855;BME280;69984;-43.570;172.580;2024-01-30T07:18:58;101284.88;;;17.33;100.00
68855;BME280;69984;-43.570;172.580;2024-01-30T07:21:25;101284.44;;;17.22;100.00
68855;BME280;69984;-43.570;172.580;2024-01-30T07:23:57;101289.97;;;16.65;100.00
68855;BME280;69984;-43.570;172.580;2024-01-30T07:26:24;101303.19;;;16.73;100.00
68855;BME280;69984;-43.570;172.580;2024-01-30T07:28:51;101307.50;;;16.74;100.00
68855;BME280;69984;-43.570;172.580;2024-01-30T07:31:18;101328.19;;;16.63;100.00
68855;BME280;69984;-43.570;172.580;2024-01-30T07:33:47;101323.72;;;16.47;100.00
68855;BME280;69984;-43.570;172.580;2024-01-30T07:36:14;101329.31;;;16.76;100.00
68855;BME280;69984;-43.570;172.580;2024-01-30T07:38:40;101323.66;;;16.87;100.00
68855;BME280;69984;-43.570;172.580;2024-01-30T07:41:07;101324.84;;;16.77;100.00
68855;BME280;69984;-43.570;172.580;2024-01-30T07:43:34;101334.16;;;16.40;100.00
68855;BME280;69984;-43.570;172.580;2024-01-30T07:46:02;101343.41;;;16.61;100.00
68855;BME280;69984;-43.570;172.580;2024-01-30T07:48:29;101344.44;;;16.35;100.00
68855;BME280;69984;-43.570;172.580;2024-01-30T07:50:56;101332.00;;;16.44;100.00
68855;BME280;69984;-43.570;172.580;2024-01-30T07:53:23;101347.56;;;16.23;100.00
68855;BME280;69984;-43.570;172.580;2024-01-30T07:55:49;101351.53;;;16.27;100.00
68855;BME280;69984;-43.570;172.580;2024-01-30T07:58:16;101352.34;;;16.35;100.00
68855;BME280;69984;-43.570;172.580;2024-01-30T08:00:43;101357.47;;;16.37;100.00
68855;BME280;69984;-43.570;172.580;2024-01-30T08:03:11;101355.50;;;16.31;100.00
68855;BME280;69984;-43.570;172.580;2024-01-30T08:05:38;101360.78;;;16.31;100.00
68855;BME280;69984;-43.570;172.580;2024-01-30T08:08:05;101362.09;;;16.27;100.00
68855;BME280;69984;-43.570;172.580;2024-01-30T08:10:32;101363.59;;;16.21;100.00
68855;BME280;69984;-43.570;172.580;2024-01-30T08:12:59;101372.84;;;16.01;100.00
68855;BME280;69984;-43.570;172.580;2024-01-30T08:15:26;101375.16;;;15.96;100.00
68855;BME280;69984;-43.570;172.580;2024-01-30T08:17:53;101380.25;;;15.97;100.00
68855;BME280;69984;-43.570;172.580;2024-01-30T08:20:24;101384.25;;;15.93;100.00
68855;BME280;69984;-43.570;172.580;2024-01-30T08:22:52;101393.19;;;16.01;100.00
68855;BME280;69984;-43.570;172.580;2024-01-30T08:25:19;101399.63;;;16.06;100.00
68855;BME280;69984;-43.570;172.580;2024-01-30T08:27:46;101405.41;;;16.02;100.00
68855;BME280;69984;-43.570;172.580;2024-01-30T08:30:13;101406.25;;;16.10;100.00
68855;BME280;69984;-43.570;172.580;2024-01-30T08:32:40;101401.44;;;16.06;100.00
68855;BME280;69984;-43.570;172.580;2024-01-30T08:35:07;101417.63;;;15.86;100.00
68855;BME280;69984;-43.570;172.580;2024-01-30T08:37:35;101418.25;;;15.72;100.00
68855;BME280;69984;-43.570;172.580;2024-01-30T08:40:02;101427.94;;;15.64;100.00
68855;BME280;69984;-43.570;172.580;2024-01-30T08:42:30;101425.84;;;15.75;100.00
68855;BME280;69984;-43.570;172.580;2024-01-30T08:44:57;101433.59;;;15.77;100.00
68855;BME280;69984;-43.570;172.580;2024-01-30T08:47:24;101429.13;;;15.77;100.00
68855;BME280;69984;-43.570;172.580;2024-01-30T08:49:51;101424.97;;;15.67;100.00
68855;BME280;69984;-43.570;172.580;2024-01-30T08:52:18;101438.91;;;15.85;100.00
68855;BME280;69984;-43.570;172.580;2024-01-30T08:54:45;101436.75;;;15.72;100.00
68855;BME280;69984;-43.570;172.580;2024-01-30T08:57:12;101454.09;;;15.75;100.00
68855;BME280;69984;-43.570;172.580;2024-01-30T08:59:39;101462.34;;;15.72;100.00
68855;BME280;69984;-43.570;172.580;2024-01-30T09:02:06;101471.75;;;15.74;100.00
68855;BME280;69984;-43.570;172.580;2024-01-30T09:04:33;101474.88;;;15.70;100.00
68855;BME280;69984;-43.570;172.580;2024-01-30T09:07:00;101480.47;;;15.67;100.00
68855;BME280;69984;-43.570;172.580;2024-01-30T09:09:27;101479.47;;;15.60;100.00
68855;BME280;69984;-43.570;172.580;2024-01-30T09:11:54;101481.44;;;15.58;100.00
68855;BME280;69984;-43.570;172.580;2024-01-30T09:14:21;101478.94;;;15.56;100.00
68855;BME280;69984;-43.570;172.580;2024-01-30T09:16:48;101479.78;;;15.57;100.00
68855;BME280;69984;-43.570;172.580;2024-01-30T09:19:15;101484.22;;;15.56;100.00
68855;BME280;69984;-43.570;172.580;2024-01-30T09:21:42;101482.09;;;15.60;100.00
68855;BME280;69984;-43.570;172.580;2024-01-30T09:24:09;101483.91;;;15.59;100.00
68855;BME280;69984;-43.570;172.580;2024-01-30T09:26:36;101485.56;;;15.60;100.00
68855;BME280;69984;-43.570;172.580;2024-01-30T09:29:03;101481.25;;;15.51;100.00
68855;BME280;69984;-43.570;172.580;2024-01-30T09:31:30;101484.44;;;15.37;100.00
68855;BME280;69984;-43.570;172.580;2024-01-30T09:33:57;101474.88;;;15.36;100.00
68855;BME280;69984;-43.570;172.580;2024-01-30T09:36:24;101476.03;;;15.41;100.00
68855;BME280;69984;-43.570;172.580;2024-01-30T09:38:51;101479.25;;;15.27;100.00
68855;BME280;69984;-43.570;172.580;2024-01-30T09:41:19;101471.09;;;15.13;100.00
68855;BME280;69984;-43.570;172.580;2024-01-30T09:43:48;101477.72;;;15.17;100.00
68855;BME280;69984;-43.570;172.580;2024-01-30T09:46:17;101487.66;;;15.23;100.00
68855;BME280;69984;-43.570;172.580;2024-01-30T09:48:47;101490.31;;;15.23;100.00
68855;BME280;69984;-43.570;172.580;2024-01-30T09:51:18;101485.34;;;15.20;100.00
68855;BME280;69984;-43.570;172.580;2024-01-30T09:53:45;101487.34;;;15.26;100.00
68855;BME280;69984;-43.570;172.580;2024-01-30T09:56:16;101498.56;;;15.20;100.00
68855;BME280;69984;-43.570;172.580;2024-01-30T09:58:44;101500.69;;;15.24;100.00
68855;BME280;69984;-43.570;172.580;2024-01-30T10:01:10;101493.88;;;15.39;100.00
68855;BME280;69984;-43.570;172.580;2024-01-30T10:03:37;101494.59;;;15.24;100.00
68855;BME280;69984;-43.570;172.580;2024-01-30T10:06:05;101494.31;;;15.35;100.00
68855;BME280;69984;-43.570;172.580;2024-01-30T10:08:32;101487.75;;;15.39;100.00
68855;BME280;69984;-43.570;172.580;2024-01-30T10:10:59;101496.44;;;15.31;100.00
68855;BME280;69984;-43.570;172.580;2024-01-30T10:13:27;101504.69;;;15.28;100.00
68855;BME280;69984;-43.570;172.580;2024-01-30T10:15:55;101500.25;;;15.29;100.00
68855;BME280;69984;-43.570;172.580;2024-01-30T10:18:25;101505.59;;;15.37;100.00
68855;BME280;69984;-43.570;172.580;2024-01-30T10:20:52;101506.34;;;15.29;100.00
68855;BME280;69984;-43.570;172.580;2024-01-30T10:23:19;101510.72;;;15.13;100.00
68855;BME280;69984;-43.570;172.580;2024-01-30T10:25:46;101505.06;;;15.08;100.00
68855;BME280;69984;-43.570;172.580;2024-01-30T10:28:13;101517.34;;;14.99;100.00
68855;BME280;69984;-43.570;172.580;2024-01-30T10:30:40;101510.97;;;15.02;100.00
68855;BME280;69984;-43.570;172.580;2024-01-30T10:33:07;101517.13;;;15.10;100.00
68855;BME280;69984;-43.570;172.580;2024-01-30T10:35:34;101520.78;;;15.17;100.00
68855;BME280;69984;-43.570;172.580;2024-01-30T10:38:01;101510.81;;;15.29;100.00
68855;BME280;69984;-43.570;172.580;2024-01-30T10:40:29;101508.06;;;15.38;100.00
68855;BME280;69984;-43.570;172.580;2024-01-30T10:42:59;101510.38;;;15.41;100.00
68855;BME280;69984;-43.570;172.580;2024-01-30T10:45:28;101514.16;;;15.39;100.00
68855;BME280;69984;-43.570;172.580;2024-01-30T10:47:58;101515.63;;;15.33;100.00
68855;BME280;69984;-43.570;172.580;2024-01-30T10:50:27;101521.56;;;15.35;100.00
68855;BME280;69984;-43.570;172.580;2024-01-30T10:52:55;101522.78;;;15.41;100.00
68855;BME280;69984;-43.570;172.580;2024-01-30T10:55:22;101519.13;;;15.42;100.00
68855;BME280;69984;-43.570;172.580;2024-01-30T10:57:50;101524.03;;;15.55;100.00
68855;BME280;69984;-43.570;172.580;2024-01-30T11:00:18;101518.25;;;15.59;100.00
68855;BME280;69984;-43.570;172.580;2024-01-30T11:02:48;101511.34;;;15.66;100.00
68855;BME280;69984;-43.570;172.580;2024-01-30T11:05:23;101514.50;;;15.62;100.00
68855;BME280;69984;-43.570;172.580;2024-01-30T11:07:52;101515.63;;;15.59;100.00
68855;BME280;69984;-43.570;172.580;2024-01-30T11:10:19;101527.44;;;15.47;100.00
68855;BME280;69984;-43.570;172.580;2024-01-30T11:12:47;101514.66;;;15.60;100.00
68855;BME280;69984;-43.570;172.580;2024-01-30T11:15:16;101516.25;;;15.53;100.00
68855;BME280;69984;-43.570;172.580;2024-01-30T11:20:30;101515.66;;;15.41;100.00
68855;BME280;69984;-43.570;172.580;2024-01-30T11:23:03;101517.25;;;15.52;100.00
68855;BME280;69984;-43.570;172.580;2024-01-30T11:25:33;101519.44;;;15.39;100.00
68855;BME280;69984;-43.570;172.580;2024-01-30T11:28:00;101522.88;;;15.31;100.00
68855;BME280;69984;-43.570;172.580;2024-01-30T11:30:32;101527.94;;;15.25;100.00
68855;BME280;69984;-43.570;172.580;2024-01-30T11:33:06;101530.69;;;15.15;100.00
68855;BME280;69984;-43.570;172.580;2024-01-30T11:35:39;101532.88;;;15.20;100.00
68855;BME280;69984;-43.570;172.580;2024-01-30T11:38:07;101534.59;;;15.29;100.00
68855;BME280;69984;-43.570;172.580;2024-01-30T11:40:36;101530.84;;;15.14;100.00
68855;BME280;69984;-43.570;172.580;2024-01-30T11:43:05;101531.56;;;15.24;100.00
68855;BME280;69984;-43.570;172.580;2024-01-30T11:45:33;101531.03;;;15.20;100.00
68855;BME280;69984;-43.570;172.580;2024-01-30T11:48:00;101525.25;;;15.17;100.00
68855;BME280;69984;-43.570;172.580;2024-01-30T11:50:33;101532.13;;;15.10;100.00
68855;BME280;69984;-43.570;172.580;2024-01-30T11:53:01;101521.41;;;15.11;100.00
68855;BME280;69984;-43.570;172.580;2024-01-30T11:55:30;101518.88;;;15.27;100.00
68855;BME280;69984;-43.570;172.580;2024-01-30T11:57:57;101523.03;;;15.30;100.00
68855;BME280;69984;-43.570;172.580;2024-01-30T12:00:24;101513.72;;;15.18;100.00
68855;BME280;69984;-43.570;172.580;2024-01-30T12:02:52;101520.22;;;15.31;100.00
68855;BME280;69984;-43.570;172.580;2024-01-30T12:05:28;101519.97;;;15.42;100.00
68855;BME280;69984;-43.570;172.580;2024-01-30T12:07:55;101515.13;;;15.38;100.00
68855;BME280;69984;-43.570;172.580;2024-01-30T12:10:25;101512.94;;;15.25;100.00
68855;BME280;69984;-43.570;172.580;2024-01-30T12:12:52;101509.50;;;15.33;100.00
68855;BME280;69984;-43.570;172.580;2024-01-30T12:15:22;101511.97;;;15.34;100.00
68855;BME280;69984;-43.570;172.580;2024-01-30T12:17:49;101512.50;;;15.38;100.00
68855;BME280;69984;-43.570;172.580;2024-01-30T12:20:19;101514.81;;;15.33;100.00